Time;durP1;ratioP1;P1;durP2;ratioP2;P2;SDS_P1;SDS_P2;PMS_P1;PMS_P2;Temp;Humidity;BMP_temperature;BMP_pressure;BME280_temperature;BME280_humidity;BME280_pressure;Samples;Min_cycle;Max_cycle;Signal;HPM_P1;HPM_P2
2022/04/16 00:01:43;;;;;;;0.30;0.30;;;10.70;99.90;;;11.19;nan;101777.88;4965675;28;20667;-69
2022/04/16 00:04:11;;;;;;;0.30;0.30;;;10.70;99.90;;;11.18;nan;101781.44;4966768;28;20654;-69
2022/04/16 00:06:38;;;;;;;0.30;0.20;;;10.60;99.90;;;11.12;nan;101787.81;4954069;28;21023;-69
2022/04/16 00:09:05;;;;;;;0.30;0.20;;;10.60;99.90;;;11.05;nan;101770.81;4938023;28;20673;-69
2022/04/16 00:11:33;;;;;;;0.30;0.30;;;10.50;99.90;;;11.05;nan;101776.03;4942196;28;20640;-70
2022/04/16 00:13:59;;;;;;;1.63;1.53;;;10.40;99.90;;;11.09;nan;101771.47;4970904;28;20705;-69
2022/04/16 00:16:26;;;;;;;0.30;0.20;;;10.50;99.90;;;11.09;nan;101777.56;4971397;28;20667;-69
2022/04/16 00:18:56;;;;;;;0.30;0.30;;;10.60;99.90;;;11.00;nan;101767.63;4970471;28;20670;-69
2022/04/16 00:21:26;;;;;;;0.30;0.30;;;10.40;99.90;;;11.06;nan;101775.09;4971087;28;21000;-67
2022/04/16 00:23:53;;;;;;;0.30;0.20;;;10.50;99.90;;;11.07;nan;101775.94;4970384;28;20628;-69
2022/04/16 00:26:21;;;;;;;0.30;0.30;;;10.50;99.90;;;10.97;nan;101775.59;4971646;28;20619;-68
2022/04/16 00:28:50;;;;;;;0.30;0.30;;;10.40;99.90;;;10.93;nan;101767.09;4970442;28;20663;-69
2022/04/16 00:31:17;;;;;;;0.30;0.30;;;10.40;99.90;;;10.91;nan;101771.56;4968583;28;21230;-69
2022/04/16 00:33:46;;;;;;;0.30;0.30;;;10.30;99.90;;;10.88;nan;101774.34;4965100;28;20650;-69
2022/04/16 00:36:14;;;;;;;0.30;0.30;;;10.40;99.90;;;10.99;nan;101776.38;4950940;28;21252;-69
2022/04/16 00:38:42;;;;;;;0.30;0.20;;;10.40;99.90;;;10.76;nan;101775.03;4955365;28;20658;-69
2022/04/16 00:41:11;;;;;;;0.30;0.30;;;10.30;99.90;;;10.84;nan;101778.06;4970644;28;20642;-70
2022/04/16 00:43:38;;;;;;;0.40;0.30;;;10.30;99.90;;;10.78;nan;101777.53;4968951;28;24438;-69
2022/04/16 00:46:05;;;;;;;0.30;0.20;;;10.20;99.90;;;10.75;nan;101782.94;4971637;28;21003;-69
2022/04/16 00:48:32;;;;;;;0.30;0.30;;;10.20;99.90;;;10.65;nan;101771.31;4970041;28;20636;-69
2022/04/16 00:50:59;;;;;;;0.30;0.27;;;10.10;99.90;;;10.53;nan;101772.81;4954205;28;21218;-70
2022/04/16 00:53:29;;;;;;;0.30;0.30;;;10.00;99.90;;;10.67;nan;101765.06;4970334;28;21021;-65
2022/04/16 00:55:58;;;;;;;0.30;0.20;;;10.10;99.90;;;10.68;nan;101765.94;4959350;28;21260;-68
2022/04/16 00:58:25;;;;;;;0.30;0.20;;;10.10;99.90;;;10.75;nan;101772.50;4950555;28;20639;-70
2022/04/16 01:00:52;;;;;;;0.30;0.30;;;10.10;99.90;;;10.71;nan;101771.00;4967255;28;20628;-69
2022/04/16 01:03:19;;;;;;;0.30;0.20;;;10.10;99.90;;;10.64;nan;101767.88;4972708;28;20639;-71
2022/04/16 01:05:46;;;;;;;0.30;0.30;;;10.10;99.90;;;10.62;nan;101771.50;4956820;28;20644;-68
2022/04/16 01:08:17;;;;;;;0.30;0.20;;;10.10;99.90;;;10.62;nan;101774.94;4973995;28;20639;-69
2022/04/16 01:10:44;;;;;;;0.30;0.30;;;10.10;99.90;;;10.57;nan;101782.16;4958165;28;20639;-70
2022/04/16 01:13:12;;;;;;;0.30;0.20;;;10.00;99.90;;;10.54;nan;101784.13;4956330;28;21002;-71
2022/04/16 01:15:39;;;;;;;0.30;0.20;;;10.00;99.90;;;10.48;nan;101789.63;4974076;28;20669;-70
2022/04/16 01:18:07;;;;;;;0.30;0.30;;;10.00;99.90;;;10.47;nan;101788.81;4973307;28;20646;-69
2022/04/16 01:20:41;;;;;;;0.30;0.20;;;10.00;99.90;;;10.39;nan;101790.97;4975542;28;20643;-69
2022/04/16 01:23:08;;;;;;;0.30;0.30;;;9.90;99.90;;;10.50;nan;101795.66;4957255;28;20647;-69
2022/04/16 01:25:36;;;;;;;0.30;0.30;;;10.00;99.90;;;10.52;nan;101792.00;4956359;28;20635;-70
2022/04/16 01:28:04;;;;;;;0.30;0.20;;;9.90;99.90;;;10.52;nan;101780.75;4973569;28;20662;-67
2022/04/16 01:30:32;;;;;;;0.30;0.20;;;9.90;99.90;;;10.36;nan;101785.06;4963364;28;20660;-68
2022/04/16 01:32:59;;;;;;;0.30;0.30;;;9.80;99.90;;;10.36;nan;101780.72;4972074;28;20721;-69
2022/04/16 01:35:26;;;;;;;0.30;0.20;;;9.80;99.90;;;10.37;nan;101787.59;4971819;28;20675;-70
2022/04/16 01:37:53;;;;;;;0.30;0.30;;;9.80;99.90;;;10.29;nan;101788.91;4974301;28;20690;-69
2022/04/16 01:40:20;;;;;;;0.30;0.20;;;9.80;99.90;;;10.21;nan;101786.72;4974198;28;21311;-69
2022/04/16 01:42:48;;;;;;;0.30;0.20;;;9.70;99.90;;;10.11;nan;101783.72;4973634;28;21498;-69
2022/04/16 01:45:18;;;;;;;0.30;0.20;;;9.60;99.90;;;10.16;nan;101780.91;4972333;28;20626;-69
2022/04/16 01:47:45;;;;;;;0.30;0.20;;;9.60;99.90;;;10.22;nan;101782.34;4968398;28;20640;-69
2022/04/16 01:50:12;;;;;;;0.30;0.30;;;9.70;99.90;;;10.30;nan;101780.19;4973375;28;20678;-69
2022/04/16 01:52:43;;;;;;;0.30;0.30;;;9.70;99.90;;;10.25;nan;101776.97;4975083;28;20646;-69
2022/04/16 01:55:12;;;;;;;0.30;0.20;;;9.70;99.90;;;10.20;nan;101781.59;4974936;28;20627;-70
2022/04/16 01:57:40;;;;;;;0.30;0.20;;;9.70;99.90;;;10.18;nan;101781.66;4955946;28;20999;-69
2022/04/16 02:00:09;;;;;;;0.30;0.30;;;9.60;99.90;;;10.15;nan;101789.66;4973929;28;20643;-69
2022/04/16 02:02:37;;;;;;;0.30;0.20;;;9.70;99.90;;;10.19;nan;101782.50;4954672;28;20635;-70
2022/04/16 02:05:09;;;;;;;0.30;0.20;;;9.60;99.90;;;10.03;nan;101782.41;4973872;28;21000;-69
2022/04/16 02:07:36;;;;;;;0.30;0.20;;;9.50;99.90;;;10.08;nan;101777.81;4956102;28;20638;-69
2022/04/16 02:10:04;;;;;;;0.30;0.20;;;9.60;99.90;;;10.09;nan;101782.13;4956269;28;20659;-69
2022/04/16 02:12:31;;;;;;;0.30;0.27;;;9.50;99.90;;;10.13;nan;101779.31;4972247;28;20653;-70
2022/04/16 02:14:58;;;;;;;0.30;0.20;;;9.60;99.90;;;10.04;nan;101774.53;4972861;28;20638;-69
2022/04/16 02:17:25;;;;;;;0.30;0.20;;;9.50;99.90;;;10.13;nan;101773.25;4972396;28;20671;-70
2022/04/16 02:19:52;;;;;;;0.30;0.20;;;9.60;99.90;;;10.22;nan;101780.59;4974228;28;20686;-69
2022/04/16 02:22:19;;;;;;;0.30;0.20;;;9.70;99.90;;;10.28;nan;101782.03;4972122;28;20638;-69
2022/04/16 02:24:46;;;;;;;0.30;0.30;;;9.80;99.90;;;10.29;nan;101783.69;4972835;28;21181;-69
2022/04/16 02:27:14;;;;;;;0.30;0.20;;;9.80;99.90;;;10.41;nan;101783.94;4972669;28;20642;-69
2022/04/16 02:29:45;;;;;;;0.37;0.37;;;9.90;99.90;;;10.50;nan;101786.03;4973991;28;20669;-69
2022/04/16 02:32:12;;;;;;;0.30;0.30;;;10.00;99.90;;;10.52;nan;101780.75;4972521;28;20643;-68
2022/04/16 02:34:38;;;;;;;0.30;0.20;;;10.10;99.90;;;10.51;nan;101774.69;4972101;28;20639;-69
2022/04/16 02:37:05;;;;;;;0.70;0.70;;;10.10;99.90;;;10.60;nan;101768.13;4964560;28;20666;-69
2022/04/16 02:39:32;;;;;;;0.30;0.20;;;10.10;99.90;;;10.71;nan;101771.00;4974143;28;20662;-69
2022/04/16 02:41:59;;;;;;;0.30;0.30;;;10.20;99.90;;;10.74;nan;101770.81;4972694;28;20623;-69
2022/04/16 02:47:13;;;;;;;0.30;0.20;;;10.30;99.90;;;10.81;nan;101772.16;4972101;28;20639;-69
2022/04/16 02:49:40;;;;;;;0.30;0.20;;;10.30;99.90;;;10.87;nan;101766.59;4971541;28;21252;-70
2022/04/16 02:52:07;;;;;;;0.30;0.30;;;10.30;99.90;;;10.86;nan;101770.97;4973296;28;20635;-69
2022/04/16 02:54:35;;;;;;;20.00;9.03;;;10.40;99.90;;;10.80;nan;101775.69;4953996;28;20639;-69
2022/04/16 02:57:03;;;;;;;0.30;0.20;;;10.30;99.90;;;10.79;nan;101764.44;4971298;28;20842;-69
2022/04/16 02:59:33;;;;;;;0.30;0.20;;;10.30;99.90;;;10.80;nan;101773.94;4971532;28;20716;-69
2022/04/16 03:02:00;;;;;;;0.30;0.20;;;10.30;99.90;;;10.79;nan;101784.47;4955462;28;20631;-69
2022/04/16 03:04:27;;;;;;;0.30;0.30;;;10.30;99.90;;;10.86;nan;101781.41;4966847;28;20727;-69
2022/04/16 03:06:55;;;;;;;0.30;0.20;;;10.40;99.90;;;10.87;nan;101782.28;4961447;28;20640;-69
2022/04/16 03:09:22;;;;;;;0.30;0.20;;;10.40;99.90;;;10.88;nan;101779.56;4955769;28;20670;-67
2022/04/16 03:11:49;;;;;;;1.10;0.80;;;10.40;99.90;;;10.91;nan;101786.41;4971262;28;20705;-69
2022/04/16 03:19:47;;;;;;;0.40;0.40;;;10.50;99.90;;;10.94;nan;101797.50;4958369;28;20643;-69
2022/04/16 03:22:14;;;;;;;1.67;1.27;;;10.50;99.90;;;11.03;nan;101792.72;4971296;28;20631;-70
2022/04/16 03:24:41;;;;;;;0.30;0.20;;;10.60;99.90;;;11.02;nan;101791.03;4970161;28;20637;-69
2022/04/16 03:27:08;;;;;;;0.30;0.20;;;10.60;99.90;;;10.98;nan;101794.75;4971568;28;20639;-69
2022/04/16 03:29:35;;;;;;;0.30;0.20;;;10.50;99.90;;;11.04;nan;101790.03;4972592;28;20660;-69
2022/04/16 03:32:03;;;;;;;0.30;0.20;;;10.60;99.90;;;11.05;nan;101790.88;4971524;28;20635;-69
2022/04/16 03:34:31;;;;;;;0.30;0.30;;;10.60;99.90;;;11.10;nan;101788.81;4964577;28;20632;-69
2022/04/16 03:36:58;;;;;;;0.30;0.30;;;10.60;99.90;;;11.08;nan;101790.69;4970223;28;20671;-69
2022/04/16 03:39:26;;;;;;;0.30;0.20;;;10.70;99.90;;;11.01;nan;101784.13;4953979;28;20659;-69
2022/04/16 03:41:53;;;;;;;0.30;0.20;;;10.60;99.90;;;11.06;nan;101792.53;4971197;28;22269;-70
2022/04/16 03:44:20;;;;;;;0.30;0.20;;;10.60;99.90;;;11.17;nan;101792.78;4970921;28;21020;-70
2022/04/16 03:46:47;;;;;;;0.30;0.20;;;10.70;99.90;;;11.13;nan;101786.06;4970946;28;20639;-70
2022/04/16 03:49:14;;;;;;;0.30;0.23;;;10.70;99.90;;;11.19;nan;101791.78;4972050;28;20667;-69
2022/04/16 03:51:41;;;;;;;0.30;0.20;;;10.80;99.90;;;11.03;nan;101793.53;4971683;28;20647;-70
2022/04/16 04:02:26;;;;;;;0.30;0.20;;;10.50;99.90;;;10.92;nan;101793.31;4960308;28;20646;-69
2022/04/16 04:04:53;;;;;;;0.30;0.20;;;10.50;99.90;;;10.95;nan;101806.19;4970759;28;20642;-69
2022/04/16 04:07:20;;;;;;;0.30;0.27;;;10.50;99.90;;;10.89;nan;101802.16;4970783;28;21200;-68
2022/04/16 04:09:47;;;;;;;0.30;0.20;;;10.50;99.90;;;10.92;nan;101801.16;4970526;28;20659;-69
2022/04/16 04:12:15;;;;;;;0.30;0.30;;;10.40;99.90;;;11.00;nan;101792.88;4970499;28;20677;-69
2022/04/16 04:14:45;;;;;;;0.30;0.30;;;10.50;99.90;;;10.98;nan;101799.97;4953960;28;20760;-69
2022/04/16 04:17:13;;;;;;;0.30;0.20;;;10.50;99.90;;;11.00;nan;101798.94;4971565;28;20674;-69
2022/04/16 04:19:43;;;;;;;0.30;0.20;;;10.60;99.90;;;11.09;nan;101802.81;4945887;29;20662;-69
2022/04/16 04:22:15;;;;;;;0.37;0.37;;;10.70;99.90;;;10.92;nan;101796.75;4957601;28;20667;-69
2022/04/16 04:24:43;;;;;;;0.30;0.30;;;10.50;99.90;;;10.92;nan;101809.00;4970654;28;20632;-69
2022/04/16 04:27:10;;;;;;;0.30;0.30;;;10.40;99.90;;;10.99;nan;101806.88;4971828;28;20627;-69
2022/04/16 04:29:38;;;;;;;0.30;0.20;;;10.60;99.90;;;10.86;nan;101807.53;4968560;28;20811;-70
2022/04/16 04:32:06;;;;;;;0.27;0.20;;;10.50;99.90;;;10.88;nan;101807.47;4964375;28;20647;-69
2022/04/16 04:34:34;;;;;;;0.20;0.20;;;10.40;99.90;;;10.88;nan;101821.34;4970668;28;20709;-69
2022/04/16 04:37:01;;;;;;;0.30;0.30;;;10.40;99.90;;;10.92;nan;101812.41;4970608;28;20674;-69
2022/04/16 04:39:28;;;;;;;0.30;0.20;;;10.50;99.90;;;10.95;nan;101811.41;4970281;28;20659;-69
2022/04/16 04:41:55;;;;;;;0.20;0.20;;;10.50;99.90;;;10.92;nan;101811.59;4969759;28;20636;-69
2022/04/16 04:44:22;;;;;;;0.20;0.20;;;10.50;99.90;;;10.96;nan;101812.25;4970807;28;20638;-68
2022/04/16 04:46:52;;;;;;;0.30;0.30;;;10.50;99.90;;;11.01;nan;101818.09;4962998;28;20654;-69
2022/04/16 04:49:20;;;;;;;0.30;0.30;;;10.50;99.90;;;10.89;nan;101817.81;4970819;28;20672;-70
2022/04/16 04:51:47;;;;;;;0.30;0.30;;;10.50;99.90;;;11.03;nan;101826.69;4936575;28;20654;-67
2022/04/16 04:54:14;;;;;;;0.30;0.30;;;10.60;99.90;;;11.02;nan;101822.38;4969530;28;20643;-70
2022/04/16 04:56:41;;;;;;;0.30;0.20;;;10.60;99.90;;;11.06;nan;101824.72;4968722;28;20678;-69
2022/04/16 04:59:09;;;;;;;0.20;0.20;;;10.60;99.90;;;11.11;nan;101825.34;4969952;28;20674;-69
2022/04/16 05:01:36;;;;;;;0.20;0.20;;;10.70;99.90;;;11.12;nan;101828.75;4961393;28;20631;-69
2022/04/16 05:04:03;;;;;;;0.20;0.20;;;10.70;99.90;;;10.98;nan;101820.84;4952781;28;21275;-69
2022/04/16 05:06:30;;;;;;;0.30;0.20;;;10.60;99.90;;;11.01;nan;101826.75;4953187;28;20643;-69
2022/04/16 05:08:57;;;;;;;0.30;0.20;;;10.60;99.90;;;11.09;nan;101828.94;4953904;28;20690;-69
2022/04/16 05:11:24;;;;;;;0.30;0.23;;;10.60;99.90;;;11.16;nan;101836.34;4969709;28;20642;-66
2022/04/16 05:13:51;;;;;;;0.30;0.30;;;10.70;99.90;;;11.15;nan;101841.66;4969793;28;20651;-69
2022/04/16 05:16:18;;;;;;;0.30;0.20;;;10.70;99.90;;;11.22;nan;101840.41;4970775;28;20658;-67
2022/04/16 05:18:45;;;;;;;0.20;0.20;;;10.80;99.90;;;11.16;nan;101838.16;4969193;28;21370;-69
2022/04/16 05:21:12;;;;;;;0.20;0.20;;;10.80;99.90;;;11.15;nan;101839.91;4969914;28;20651;-70
2022/04/16 05:23:40;;;;;;;0.50;0.50;;;10.80;99.90;;;11.21;nan;101844.78;4953160;28;20654;-68
2022/04/16 05:26:09;;;;;;;1.37;1.37;;;10.80;99.90;;;11.21;nan;101838.72;4964218;28;20640;-69
2022/04/16 05:28:40;;;;;;;0.20;0.20;;;10.80;99.90;;;11.14;nan;101838.19;4970336;28;20631;-70
2022/04/16 05:31:07;;;;;;;0.20;0.20;;;10.70;99.90;;;11.07;nan;101836.88;4965549;28;20639;-69
2022/04/16 05:36:20;;;;;;;6.80;2.03;;;10.70;99.90;;;11.18;nan;101846.72;4969412;28;21278;-69
2022/04/16 05:38:47;;;;;;;0.20;0.20;;;10.80;99.90;;;11.19;nan;101840.56;4969865;28;21249;-69
2022/04/16 05:41:14;;;;;;;0.47;0.47;;;10.80;99.90;;;11.26;nan;101848.00;4968389;28;21203;-69
2022/04/16 05:43:42;;;;;;;2.27;1.27;;;10.80;99.90;;;11.23;nan;101853.38;4970541;28;20703;-69
2022/04/16 05:46:09;;;;;;;0.20;0.20;;;10.90;99.90;;;11.20;nan;101844.88;4967539;28;21063;-67
2022/04/16 05:48:36;;;;;;;0.30;0.20;;;10.90;99.90;;;11.36;nan;101853.53;4959502;28;20643;-69
2022/04/16 05:51:04;;;;;;;0.30;0.20;;;11.00;99.90;;;11.40;nan;101857.66;4974450;28;20627;-70
2022/04/16 05:53:31;;;;;;;0.30;0.20;;;11.10;99.90;;;11.42;nan;101853.19;4957944;28;20642;-70
2022/04/16 05:55:59;;;;;;;0.30;0.20;;;11.00;99.90;;;11.49;nan;101862.38;4974240;28;20639;-69
2022/04/16 05:58:26;;;;;;;0.30;0.20;;;11.10;99.90;;;11.45;nan;101858.25;4956323;28;20674;-69
2022/04/16 06:00:54;;;;;;;1.33;1.33;;;11.10;99.90;;;11.48;nan;101865.91;4955954;28;20639;-70
2022/04/16 06:03:21;;;;;;;0.43;0.43;;;11.10;99.90;;;11.56;nan;101869.78;4963248;28;20643;-69
2022/04/16 06:05:49;;;;;;;0.30;0.20;;;11.20;99.90;;;11.63;nan;101870.28;4973920;28;20639;-68
2022/04/16 06:08:16;;;;;;;0.30;0.30;;;11.30;99.90;;;11.71;nan;101873.34;4972517;28;20693;-70
2022/04/16 06:10:43;;;;;;;0.30;0.20;;;11.40;99.90;;;11.80;nan;101879.81;4955300;28;20651;-70
2022/04/16 06:13:11;;;;;;;0.30;0.20;;;11.50;99.90;;;11.77;nan;101880.84;4966574;28;21025;-70
2022/04/16 06:15:41;;;;;;;0.30;0.20;;;11.50;99.90;;;11.90;nan;101879.22;4973363;28;20618;-69
2022/04/16 06:18:09;;;;;;;0.30;0.30;;;11.60;99.90;;;11.96;nan;101883.22;4973303;28;20674;-69
2022/04/16 06:20:37;;;;;;;0.30;0.20;;;11.60;99.90;;;11.82;nan;101881.41;4973215;28;20686;-69
2022/04/16 06:23:05;;;;;;;0.30;0.30;;;11.60;99.90;;;11.99;nan;101898.75;4954624;28;21199;-69
2022/04/16 06:25:33;;;;;;;0.30;0.20;;;11.70;99.90;;;12.07;nan;101900.00;4954062;28;20604;-68
2022/04/16 06:28:00;;;;;;;0.30;0.30;;;11.80;99.90;;;12.14;nan;101892.59;4955833;28;20645;-69
2022/04/16 06:30:27;;;;;;;0.30;0.20;;;11.90;99.90;;;12.23;nan;101902.53;4973440;28;20663;-69
2022/04/16 06:32:55;;;;;;;0.30;0.20;;;12.00;99.90;;;12.36;nan;101900.91;4965808;28;21201;-70
2022/04/16 06:35:22;;;;;;;0.30;0.20;;;12.20;99.90;;;12.55;nan;101898.00;4971247;28;20674;-71
2022/04/16 06:37:49;;;;;;;0.30;0.20;;;12.40;99.90;;;12.74;nan;101898.59;4971768;28;20671;-69
2022/04/16 06:40:16;;;;;;;0.30;0.20;;;12.50;99.90;;;12.88;nan;101898.59;4973910;28;20670;-68
2022/04/16 06:42:44;;;;;;;0.30;0.20;;;12.70;99.90;;;13.04;nan;101905.44;4971839;28;20650;-69
2022/04/16 06:45:12;;;;;;;0.30;0.30;;;12.90;99.90;;;13.13;nan;101910.13;4971059;28;20642;-69
2022/04/16 06:47:39;;;;;;;0.30;0.30;;;12.90;99.90;;;13.27;nan;101911.03;4971939;28;21244;-69
2022/04/16 06:50:08;;;;;;;0.30;0.20;;;13.10;99.90;;;13.09;nan;101913.88;4973748;28;21239;-70
2022/04/16 06:52:36;;;;;;;0.30;0.20;;;13.10;99.90;;;13.21;nan;101914.88;4955439;28;21246;-70
2022/04/16 06:55:05;;;;;;;0.30;0.30;;;13.10;99.90;;;13.29;nan;101912.59;4953235;28;20642;-69
2022/04/16 06:57:32;;;;;;;0.67;0.67;;;13.20;99.90;;;13.29;nan;101915.22;4968201;28;20667;-68
2022/04/16 07:00:07;;;;;;;0.30;0.30;;;13.30;99.90;;;13.51;nan;101920.81;4964334;28;20667;-70
2022/04/16 07:02:34;;;;;;;0.30;0.30;;;13.50;99.90;;;13.45;nan;101920.34;4937444;28;20623;-69
2022/04/16 07:05:03;;;;;;;0.43;0.43;;;13.30;99.90;;;13.29;nan;101924.91;4944377;28;20639;-69
2022/04/16 07:07:30;;;;;;;0.30;0.30;;;13.30;99.90;;;13.75;nan;101914.00;4959261;28;20713;-70
2022/04/16 07:09:57;;;;;;;0.30;0.30;;;13.70;99.90;;;14.00;nan;101929.81;4950416;28;20677;-69
2022/04/16 07:12:25;;;;;;;0.30;0.20;;;14.00;99.90;;;14.42;nan;101922.66;4965116;28;21188;-70
2022/04/16 07:14:52;;;;;;;0.30;0.30;;;14.50;99.90;;;14.71;nan;101926.78;4970972;28;20627;-69
2022/04/16 07:17:20;;;;;;;0.30;0.20;;;14.70;99.90;;;14.84;nan;101925.00;4953370;28;20683;-70
2022/04/16 07:19:47;;;;;;;0.30;0.30;;;15.00;99.90;;;14.80;nan;101920.06;4971453;28;21320;-70
2022/04/16 07:22:18;;;;;;;0.30;0.20;;;15.20;99.90;;;15.42;nan;101924.34;4970018;28;20638;-70
2022/04/16 07:24:47;;;;;;;0.30;0.20;;;15.60;99.90;;;15.52;nan;101928.84;4969899;28;20642;-70
2022/04/16 07:27:15;;;;;;;0.30;0.30;;;16.00;99.90;;;15.82;nan;101930.22;4971286;28;21015;-69
2022/04/16 07:29:42;;;;;;;0.30;0.30;;;16.20;98.20;;;15.40;nan;101940.25;4970810;28;20670;-69
2022/04/16 07:32:09;;;;;;;0.30;0.30;;;16.10;96.40;;;15.59;nan;101941.59;4972167;28;20635;-70
2022/04/16 07:34:36;;;;;;;0.30;0.30;;;16.20;95.40;;;15.98;nan;101933.41;4969532;28;20645;-67
2022/04/16 07:37:03;;;;;;;0.30;0.30;;;16.50;94.80;;;16.79;nan;101936.88;4953693;28;20666;-69
2022/04/16 07:39:30;;;;;;;0.30;0.30;;;17.30;93.10;;;17.07;nan;101928.50;4967204;28;20670;-69
2022/04/16 07:41:58;;;;;;;0.30;0.30;;;17.40;91.70;;;17.34;nan;101939.50;4972190;28;20640;-70
2022/04/16 07:44:24;;;;;;;0.30;0.30;;;17.80;91.20;;;17.91;nan;101939.25;4966433;28;20647;-67
2022/04/16 07:46:52;;;;;;;0.30;0.30;;;18.30;88.00;;;18.13;nan;101931.25;4965821;28;20634;-65
2022/04/16 07:49:19;;;;;;;0.30;0.30;;;18.80;85.60;;;18.11;nan;101948.19;4961745;28;20666;-68
2022/04/16 07:51:46;;;;;;;0.30;0.30;;;18.90;82.20;;;18.75;nan;101939.19;4970700;28;21211;-70
2022/04/16 07:54:15;;;;;;;0.30;0.30;;;19.20;82.40;;;19.26;nan;101942.59;4953288;28;20631;-70
2022/04/16 07:56:42;;;;;;;0.30;0.30;;;20.00;77.80;;;19.52;nan;101948.28;4964710;28;20634;-70
2022/04/16 07:59:11;;;;;;;0.30;0.30;;;20.10;72.10;;;19.38;nan;101955.78;4970715;28;20658;-70
2022/04/16 08:01:38;;;;;;;0.30;0.30;;;20.10;70.80;;;18.30;nan;101949.16;4953672;28;20647;-71
2022/04/16 08:04:05;;;;;;;0.30;0.30;;;20.30;69.40;;;19.58;nan;101944.25;4953466;28;20710;-71
2022/04/16 08:06:33;;;;;;;0.30;0.30;;;20.20;68.20;;;19.54;nan;101953.44;4954904;28;21199;-70
2022/04/16 08:09:03;;;;;;;0.30;0.30;;;20.20;65.90;;;19.58;nan;101965.41;4971013;28;20653;-70
2022/04/16 08:11:33;;;;;;;0.30;0.30;;;20.20;65.20;;;19.98;nan;101967.00;4969097;28;20824;-69
2022/04/16 08:14:01;;;;;;;0.30;0.30;;;20.50;64.20;;;20.20;nan;101965.94;4951062;28;20642;-69
2022/04/16 08:16:28;;;;;;;0.30;0.30;;;20.80;63.60;;;20.54;nan;101979.56;4969952;28;20638;-70
2022/04/16 08:18:57;;;;;;;0.30;0.30;;;21.20;61.90;;;21.46;nan;101966.28;4968364;28;20670;-70
2022/04/16 08:21:28;;;;;;;0.30;0.30;;;22.20;60.00;;;20.16;nan;101975.09;4963139;28;21240;-70
2022/04/16 08:24:13;;;;;;;0.30;0.30;;;21.10;61.10;;;20.58;nan;101980.94;4969877;28;20635;-70
2022/04/16 08:26:41;;;;;;;0.30;0.30;;;21.50;60.60;;;21.26;nan;101961.19;4961316;28;20640;-70
2022/04/16 08:29:08;;;;;;;0.30;0.30;;;22.20;58.90;;;21.72;nan;101968.22;4953766;28;20690;-70
2022/04/16 08:31:35;;;;;;;0.30;0.30;;;22.90;56.10;;;22.53;nan;101975.13;4958684;28;21429;-71
2022/04/16 08:34:14;;;;;;;0.30;0.30;;;23.80;53.90;;;24.09;nan;101975.50;4968015;28;20706;-70
2022/04/16 08:36:41;;;;;;;0.30;0.30;;;25.20;52.90;;;25.70;nan;101983.16;4968793;28;20650;-70
2022/04/16 08:39:08;;;;;;;0.40;0.30;;;27.30;47.80;;;25.80;nan;101992.63;4968939;28;20683;-71
2022/04/16 08:41:36;;;;;;;0.30;0.30;;;27.80;46.00;;;26.06;nan;101966.38;4960078;28;20759;-72
2022/04/16 08:44:03;;;;;;;0.30;0.30;;;28.20;45.20;;;24.60;nan;101991.16;4953580;28;20639;-71
2022/04/16 08:46:32;;;;;;;0.30;0.30;;;27.70;44.00;;;24.37;nan;101988.34;4943666;28;20631;-72
2022/04/16 08:49:00;;;;;;;0.30;0.30;;;26.90;45.10;;;24.75;nan;101981.50;4966504;28;20666;-70
2022/04/16 08:51:28;;;;;;;0.30;0.30;;;26.90;45.30;;;24.95;nan;101982.78;4970727;28;20638;-70
2022/04/16 08:53:56;;;;;;;0.30;0.30;;;27.60;44.30;;;25.56;nan;101982.06;4951999;28;20647;-70
2022/04/16 08:56:23;;;;;;;0.30;0.30;;;28.50;42.70;;;26.71;nan;101989.88;4970370;28;20655;-71
2022/04/16 08:58:52;;;;;;;2.20;0.63;;;29.70;42.10;;;26.91;nan;101996.41;4967289;28;20671;-71
2022/04/16 09:01:19;;;;;;;0.30;0.30;;;30.40;40.40;;;25.72;nan;101987.31;4967558;28;20639;-71
2022/04/16 09:03:50;;;;;;;0.30;0.30;;;28.60;41.30;;;25.63;nan;101983.03;4966271;28;20648;-70
2022/04/16 09:06:24;;;;;;;0.30;0.30;;;28.30;41.60;;;24.91;nan;101975.28;4965190;28;20640;-71
2022/04/16 09:08:51;;;;;;;0.30;0.30;;;27.40;42.20;;;23.51;nan;101978.19;4941966;28;20667;-70
2022/04/16 09:11:26;;;;;;;0.30;0.30;;;26.00;42.70;;;24.22;nan;101979.34;4962063;28;20635;-70
2022/04/16 09:13:55;;;;;;;0.30;0.30;;;26.80;42.50;;;25.65;nan;101981.00;4950615;28;20642;-71
2022/04/16 09:16:23;;;;;;;0.30;0.30;;;28.90;41.10;;;24.95;nan;101988.13;4949488;28;20635;-70
2022/04/16 09:18:52;;;;;;;0.30;0.30;;;28.30;40.80;;;23.99;nan;101961.47;4966956;28;20690;-70
2022/04/16 09:21:24;;;;;;;0.30;0.30;;;27.10;42.00;;;25.50;nan;101977.41;4967414;28;20825;-71
2022/04/16 09:23:58;;;;;;;0.30;0.30;;;28.90;40.10;;;26.17;nan;101987.34;4954251;28;20650;-70
2022/04/16 09:26:39;;;;;;;0.30;0.30;;;29.10;40.90;;;27.24;nan;101986.97;4956025;28;20646;-71
2022/04/16 09:29:14;;;;;;;0.30;0.30;;;31.30;39.00;;;28.64;nan;101989.09;4968010;28;20665;-71
2022/04/16 09:31:45;;;;;;;0.30;0.30;;;33.20;37.20;;;29.92;nan;101988.31;4967435;28;20626;-73
2022/04/16 09:34:20;;;;;;;0.30;0.30;;;34.40;36.50;;;28.41;nan;101983.94;4967269;28;20635;-69
2022/04/16 09:36:48;;;;;;;0.73;0.67;;;33.30;36.00;;;30.64;nan;101993.75;4950499;28;20646;-73
2022/04/16 09:39:17;;;;;;;0.40;0.40;;;34.20;35.50;;;28.90;nan;101992.78;4966496;28;20706;-72
2022/04/16 09:41:51;;;;;;;0.30;0.30;;;34.10;35.20;;;30.20;nan;101994.31;4967390;28;20638;-71
2022/04/16 09:44:25;;;;;;;0.30;0.30;;;34.00;35.70;;;31.27;nan;102002.94;4963798;28;20627;-71
2022/04/16 09:46:55;;;;;;;0.30;0.30;;;35.50;34.50;;;30.49;nan;102003.91;4950576;28;20643;-71
2022/04/16 09:49:23;;;;;;;0.40;0.40;;;35.20;34.20;;;29.38;nan;102000.94;4937592;28;20671;-70
2022/04/16 09:51:51;;;;;;;0.30;0.30;;;33.40;35.10;;;29.60;nan;102007.84;4952114;28;20647;-73
2022/04/16 09:54:22;;;;;;;0.30;0.30;;;33.20;35.00;;;28.76;nan;102007.19;4973489;28;20631;-70
2022/04/16 09:56:50;;;;;;;0.40;0.30;;;32.80;35.10;;;28.37;nan;102004.13;4972602;28;21222;-71
2022/04/16 09:59:17;;;;;;;0.30;0.30;;;31.50;37.10;;;26.92;nan;102003.41;4963675;28;21304;-71
2022/04/16 10:01:49;;;;;;;0.40;0.30;;;30.90;36.40;;;24.22;nan;101989.16;4964959;28;20647;-70
2022/04/16 10:04:20;;;;;;;0.40;0.40;;;27.30;38.50;;;24.11;nan;101992.16;4943870;28;24473;-71
2022/04/16 10:06:48;;;;;;;0.40;0.30;;;25.50;41.50;;;24.34;nan;101999.34;4971200;28;20660;-70
2022/04/16 10:09:27;;;;;;;0.40;0.30;;;26.40;40.70;;;25.51;nan;101999.63;4972583;28;20663;-70
2022/04/16 10:15:13;;;;;;;0.40;0.30;;;27.40;40.00;;;23.62;nan;101988.53;4956477;28;20650;-70
2022/04/16 10:17:50;;;;;;;0.30;0.30;;;25.50;41.40;;;23.31;nan;101982.91;4955248;28;20666;-70
2022/04/16 10:20:23;;;;;;;0.30;0.30;;;25.10;41.90;;;22.28;nan;101990.88;4949349;28;21335;-70
2022/04/16 10:23:07;;;;;;;0.30;0.30;;;23.70;44.00;;;21.74;nan;101998.13;4973306;28;20635;-70
2022/04/16 10:25:41;;;;;;;0.30;0.30;;;23.20;44.60;;;22.98;nan;101989.91;4955408;28;20713;-71
2022/04/16 10:28:12;;;;;;;0.30;0.30;;;24.40;43.90;;;23.29;nan;101995.56;4969690;28;20693;-70
2022/04/16 10:30:41;;;;;;;0.30;0.30;;;25.60;41.50;;;22.72;nan;101991.72;4953426;28;21294;-68
2022/04/16 10:33:30;;;;;;;0.30;0.30;;;25.10;42.20;;;22.83;nan;101996.00;4972959;28;20647;-69
2022/04/16 10:36:10;;;;;;;0.30;0.30;;;24.70;42.60;;;23.02;nan;101983.25;4972910;28;20819;-69
2022/04/16 10:38:43;;;;;;;0.30;0.30;;;24.50;42.80;;;23.06;nan;101995.25;4972750;28;21267;-69
2022/04/16 10:41:17;;;;;;;0.30;0.30;;;24.10;43.50;;;22.17;nan;101979.63;4954207;28;20635;-68
2022/04/16 10:44:00;;;;;;;0.30;0.30;;;23.00;44.60;;;21.63;nan;101992.03;4949135;28;20704;-68
2022/04/16 10:46:48;;;;;;;0.30;0.30;;;22.20;45.30;;;20.14;nan;101977.88;4943401;28;20713;-69
2022/04/16 10:49:25;;;;;;;0.30;0.30;;;21.00;45.70;;;20.04;nan;101982.34;4954764;28;20679;-69
2022/04/16 10:51:55;;;;;;;0.30;0.30;;;20.30;47.90;;;20.13;nan;101984.16;4971951;28;20657;-69
2022/04/16 10:54:36;;;;;;;0.30;0.30;;;20.20;47.50;;;19.76;nan;101983.16;4946989;28;20716;-71
2022/04/16 10:57:07;;;;;;;0.30;0.30;;;19.80;48.60;;;19.32;nan;101971.19;4970931;28;21220;-70